sensor_id;sensor_type;location;lat;lon;timestamp;pressure;altitude;pressure_sealevel;temperature;humidity
65013;BME280;51715;39.432;-77.518;2023-04-26T00:01:05;100075.15;;;15.54;21.09
65013;BME280;51715;39.432;-77.518;2023-04-26T00:03:35;100074.81;;;15.34;20.92
65013;BME280;51715;39.432;-77.518;2023-04-26T00:06:04;100074.41;;;15.42;21.63
65013;BME280;51715;39.432;-77.518;2023-04-26T00:08:33;100075.28;;;15.02;21.57
65013;BME280;51715;39.432;-77.518;2023-04-26T00:11:02;100078.38;;;15.09;22.36
65013;BME280;51715;39.432;-77.518;2023-04-26T00:13:30;100079.82;;;15.10;22.77
65013;BME280;51715;39.432;-77.518;2023-04-26T00:15:58;100082.96;;;14.73;23.72
65013;BME280;51715;39.432;-77.518;2023-04-26T00:18:26;100085.74;;;14.79;23.87
65013;BME280;51715;39.432;-77.518;2023-04-26T00:20:54;100083.59;;;14.65;24.01
65013;BME280;51715;39.432;-77.518;2023-04-26T00:23:23;100082.09;;;14.51;24.36
65013;BME280;51715;39.432;-77.518;2023-04-26T00:25:51;100082.64;;;14.40;24.46
65013;BME280;51715;39.432;-77.518;2023-04-26T00:28:19;100086.78;;;14.46;25.08
65013;BME280;51715;39.432;-77.518;2023-04-26T00:30:48;100091.41;;;14.34;26.01
65013;BME280;51715;39.432;-77.518;2023-04-26T00:33:17;100091.46;;;14.19;25.67
65013;BME280;51715;39.432;-77.518;2023-04-26T00:35:46;100091.92;;;13.86;26.08
65013;BME280;51715;39.432;-77.518;2023-04-26T00:38:13;100091.82;;;13.81;25.78
65013;BME280;51715;39.432;-77.518;2023-04-26T00:40:42;100095.92;;;13.90;25.90
65013;BME280;51715;39.432;-77.518;2023-04-26T00:43:11;100100.44;;;13.79;26.05
65013;BME280;51715;39.432;-77.518;2023-04-26T00:45:39;100104.55;;;13.92;26.39
65013;BME280;51715;39.432;-77.518;2023-04-26T00:48:08;100108.97;;;13.57;26.25
65013;BME280;51715;39.432;-77.518;2023-04-26T00:50:36;100108.67;;;13.68;26.68
65013;BME280;51715;39.432;-77.518;2023-04-26T00:53:07;100110.27;;;13.53;26.54
65013;BME280;51715;39.432;-77.518;2023-04-26T00:55:35;100117.87;;;13.46;26.65
65013;BME280;51715;39.432;-77.518;2023-04-26T00:58:05;100121.05;;;13.36;27.20
65013;BME280;51715;39.432;-77.518;2023-04-26T01:00:34;100124.41;;;13.23;27.22
65013;BME280;51715;39.432;-77.518;2023-04-26T01:03:03;100127.31;;;13.09;27.71
65013;BME280;51715;39.432;-77.518;2023-04-26T01:05:33;100129.96;;;13.01;27.85
65013;BME280;51715;39.432;-77.518;2023-04-26T01:08:00;100131.84;;;13.20;27.69
65013;BME280;51715;39.432;-77.518;2023-04-26T01:10:31;100135.78;;;13.34;27.19
65013;BME280;51715;39.432;-77.518;2023-04-26T01:13:00;100139.23;;;13.07;27.24
65013;BME280;51715;39.432;-77.518;2023-04-26T01:15:29;100137.63;;;12.74;27.66
65013;BME280;51715;39.432;-77.518;2023-04-26T01:17:58;100138.95;;;13.12;27.50
65013;BME280;51715;39.432;-77.518;2023-04-26T01:20:26;100136.47;;;12.91;27.80
65013;BME280;51715;39.432;-77.518;2023-04-26T01:22:53;100135.11;;;12.54;28.20
65013;BME280;51715;39.432;-77.518;2023-04-26T01:25:22;100142.84;;;12.59;28.35
65013;BME280;51715;39.432;-77.518;2023-04-26T01:27:50;100145.83;;;12.18;29.51
65013;BME280;51715;39.432;-77.518;2023-04-26T01:30:19;100146.93;;;12.19;28.89
65013;BME280;51715;39.432;-77.518;2023-04-26T01:32:47;100148.33;;;12.26;28.76
65013;BME280;51715;39.432;-77.518;2023-04-26T01:35:16;100149.77;;;12.19;28.86
65013;BME280;51715;39.432;-77.518;2023-04-26T01:37:45;100149.80;;;12.07;29.96
65013;BME280;51715;39.432;-77.518;2023-04-26T01:40:15;100147.69;;;12.17;29.47
65013;BME280;51715;39.432;-77.518;2023-04-26T01:42:44;100146.49;;;12.23;29.04
65013;BME280;51715;39.432;-77.518;2023-04-26T01:45:12;100148.12;;;11.94;29.12
65013;BME280;51715;39.432;-77.518;2023-04-26T01:47:40;100149.23;;;11.93;29.21
65013;BME280;51715;39.432;-77.518;2023-04-26T01:50:11;100147.77;;;12.26;29.46
65013;BME280;51715;39.432;-77.518;2023-04-26T01:52:40;100150.16;;;12.01;29.69
65013;BME280;51715;39.432;-77.518;2023-04-26T01:55:09;100150.25;;;12.12;30.01
65013;BME280;51715;39.432;-77.518;2023-04-26T01:57:38;100149.36;;;11.73;29.47
65013;BME280;51715;39.432;-77.518;2023-04-26T02:00:08;100149.54;;;12.04;29.58
65013;BME280;51715;39.432;-77.518;2023-04-26T02:02:36;100154.81;;;11.96;29.16
65013;BME280;51715;39.432;-77.518;2023-04-26T02:05:05;100155.69;;;12.04;29.28
65013;BME280;51715;39.432;-77.518;2023-04-26T02:07:34;100155.28;;;12.12;29.60
65013;BME280;51715;39.432;-77.518;2023-04-26T02:10:01;100155.97;;;12.22;29.35
65013;BME280;51715;39.432;-77.518;2023-04-26T02:12:30;100158.33;;;12.18;29.16
65013;BME280;51715;39.432;-77.518;2023-04-26T02:14:59;100159.38;;;12.11;29.53
65013;BME280;51715;39.432;-77.518;2023-04-26T02:17:27;100160.77;;;12.09;28.68
65013;BME280;51715;39.432;-77.518;2023-04-26T02:19:56;100154.01;;;12.07;28.85
65013;BME280;51715;39.432;-77.518;2023-04-26T02:22:24;100152.52;;;12.02;29.50
65013;BME280;51715;39.432;-77.518;2023-04-26T02:24:53;100145.57;;;12.05;30.37
65013;BME280;51715;39.432;-77.518;2023-04-26T02:27:21;100147.38;;;11.78;29.53
65013;BME280;51715;39.432;-77.518;2023-04-26T02:29:50;100150.76;;;12.08;28.85
65013;BME280;51715;39.432;-77.518;2023-04-26T02:32:18;100152.36;;;11.67;28.98
65013;BME280;51715;39.432;-77.518;2023-04-26T02:34:47;100147.93;;;12.09;29.63
65013;BME280;51715;39.432;-77.518;2023-04-26T02:37:17;100147.13;;;12.00;29.72
65013;BME280;51715;39.432;-77.518;2023-04-26T02:39:49;100150.20;;;11.47;30.74
65013;BME280;51715;39.432;-77.518;2023-04-26T02:42:17;100147.89;;;11.56;30.97
65013;BME280;51715;39.432;-77.518;2023-04-26T02:44:46;100145.60;;;11.36;31.70
65013;BME280;51715;39.432;-77.518;2023-04-26T02:47:15;100148.43;;;11.41;31.29
65013;BME280;51715;39.432;-77.518;2023-04-26T02:49:43;100149.05;;;11.40;30.62
65013;BME280;51715;39.432;-77.518;2023-04-26T02:52:12;100145.99;;;11.34;31.13
65013;BME280;51715;39.432;-77.518;2023-04-26T02:54:40;100147.17;;;11.27;31.48
65013;BME280;51715;39.432;-77.518;2023-04-26T02:57:09;100144.48;;;11.28;31.42
65013;BME280;51715;39.432;-77.518;2023-04-26T02:59:39;100146.73;;;11.30;31.47
65013;BME280;51715;39.432;-77.518;2023-04-26T03:02:07;100146.40;;;11.11;31.46
65013;BME280;51715;39.432;-77.518;2023-04-26T03:04:35;100146.82;;;11.20;30.90
65013;BME280;51715;39.432;-77.518;2023-04-26T03:07:05;100142.47;;;11.22;29.99
65013;BME280;51715;39.432;-77.518;2023-04-26T03:09:33;100142.99;;;11.40;29.50
65013;BME280;51715;39.432;-77.518;2023-04-26T03:12:01;100145.01;;;11.30;30.32
65013;BME280;51715;39.432;-77.518;2023-04-26T03:14:30;100148.11;;;11.35;30.34
65013;BME280;51715;39.432;-77.518;2023-04-26T03:16:58;100148.97;;;11.34;30.38
65013;BME280;51715;39.432;-77.518;2023-04-26T03:19:26;100151.75;;;11.38;30.51
65013;BME280;51715;39.432;-77.518;2023-04-26T03:21:55;100155.48;;;11.22;31.17
65013;BME280;51715;39.432;-77.518;2023-04-26T03:24:23;100155.90;;;11.30;31.06
65013;BME280;51715;39.432;-77.518;2023-04-26T03:26:51;100155.11;;;11.39;31.19
65013;BME280;51715;39.432;-77.518;2023-04-26T03:29:20;100155.50;;;11.43;31.55
65013;BME280;51715;39.432;-77.518;2023-04-26T03:31:48;100155.50;;;11.40;31.55
65013;BME280;51715;39.432;-77.518;2023-04-26T03:34:16;100154.86;;;11.17;31.26
65013;BME280;51715;39.432;-77.518;2023-04-26T03:36:45;100158.62;;;11.14;31.14
65013;BME280;51715;39.432;-77.518;2023-04-26T03:39:14;100157.42;;;11.32;30.73
65013;BME280;51715;39.432;-77.518;2023-04-26T03:41:43;100159.02;;;11.30;31.77
65013;BME280;51715;39.432;-77.518;2023-04-26T03:44:12;100156.08;;;11.32;31.46
65013;BME280;51715;39.432;-77.518;2023-04-26T03:46:40;100156.73;;;11.37;31.43
65013;BME280;51715;39.432;-77.518;2023-04-26T03:49:09;100157.40;;;11.35;31.35
65013;BME280;51715;39.432;-77.518;2023-04-26T03:51:37;100154.23;;;11.50;31.31
65013;BME280;51715;39.432;-77.518;2023-04-26T03:54:06;100149.84;;;11.58;31.44
65013;BME280;51715;39.432;-77.518;2023-04-26T03:56:34;100148.60;;;11.51;31.37
65013;BME280;51715;39.432;-77.518;2023-04-26T03:59:02;100147.83;;;11.61;31.57
65013;BME280;51715;39.432;-77.518;2023-04-26T04:04:00;100155.56;;;11.45;31.29
65013;BME280;51715;39.432;-77.518;2023-04-26T04:06:28;100158.01;;;11.53;30.64
65013;BME280;51715;39.432;-77.518;2023-04-26T04:08:56;100157.22;;;11.90;30.75
65013;BME280;51715;39.432;-77.518;2023-04-26T04:11:24;100158.52;;;12.27;31.98
65013;BME280;51715;39.432;-77.518;2023-04-26T04:13:52;100158.37;;;12.41;31.34
65013;BME280;51715;39.432;-77.518;2023-04-26T04:16:21;100160.85;;;11.98;31.82
65013;BME280;51715;39.432;-77.518;2023-04-26T04:18:49;100159.86;;;12.03;31.02
65013;BME280;51715;39.432;-77.518;2023-04-26T04:21:18;100161.15;;;12.31;31.49
65013;BME280;51715;39.432;-77.518;2023-04-26T04:23:47;100164.47;;;12.26;30.91
65013;BME280;51715;39.432;-77.518;2023-04-26T04:26:14;100167.75;;;12.33;30.26
65013;BME280;51715;39.432;-77.518;2023-04-26T04:28:43;100174.22;;;12.43;30.78
65013;BME280;51715;39.432;-77.518;2023-04-26T04:31:11;100173.97;;;12.46;30.67
65013;BME280;51715;39.432;-77.518;2023-04-26T04:33:40;100171.35;;;12.54;30.30
65013;BME280;51715;39.432;-77.518;2023-04-26T04:36:09;100173.55;;;12.65;30.31
65013;BME280;51715;39.432;-77.518;2023-04-26T04:38:38;100164.58;;;12.68;30.91
65013;BME280;51715;39.432;-77.518;2023-04-26T04:41:06;100162.62;;;12.39;31.21
65013;BME280;51715;39.432;-77.518;2023-04-26T04:43:34;100164.67;;;12.67;30.81
65013;BME280;51715;39.432;-77.518;2023-04-26T04:46:01;100162.82;;;12.62;31.40
65013;BME280;51715;39.432;-77.518;2023-04-26T04:48:30;100163.38;;;12.40;31.11
65013;BME280;51715;39.432;-77.518;2023-04-26T04:50:58;100161.06;;;12.25;30.71
65013;BME280;51715;39.432;-77.518;2023-04-26T04:53:27;100161.32;;;12.37;31.38
65013;BME280;51715;39.432;-77.518;2023-04-26T04:55:56;100160.51;;;12.67;30.85
65013;BME280;51715;39.432;-77.518;2023-04-26T04:58:24;100155.41;;;12.89;30.15
65013;BME280;51715;39.432;-77.518;2023-04-26T05:00:52;100154.65;;;12.61;30.21
65013;BME280;51715;39.432;-77.518;2023-04-26T05:03:20;100157.62;;;12.68;29.77
65013;BME280;51715;39.432;-77.518;2023-04-26T05:05:47;100156.18;;;12.65;28.80
65013;BME280;51715;39.432;-77.518;2023-04-26T05:08:16;100157.56;;;12.48;29.27
65013;BME280;51715;39.432;-77.518;2023-04-26T05:10:45;100157.59;;;12.39;29.95
65013;BME280;51715;39.432;-77.518;2023-04-26T05:13:13;100154.74;;;12.96;29.94
65013;BME280;51715;39.432;-77.518;2023-04-26T05:15:41;100155.59;;;12.49;30.77
65013;BME280;51715;39.432;-77.518;2023-04-26T05:18:09;100154.70;;;12.39;30.62
65013;BME280;51715;39.432;-77.518;2023-04-26T05:20:38;100157.25;;;12.39;31.59
65013;BME280;51715;39.432;-77.518;2023-04-26T05:23:06;100152.29;;;12.38;31.23
65013;BME280;51715;39.432;-77.518;2023-04-26T05:25:36;100152.38;;;12.69;30.71
65013;BME280;51715;39.432;-77.518;2023-04-26T05:28:05;100153.81;;;12.73;30.54
65013;BME280;51715;39.432;-77.518;2023-04-26T05:30:33;100149.93;;;12.57;30.76
65013;BME280;51715;39.432;-77.518;2023-04-26T05:33:02;100143.77;;;12.59;31.21
65013;BME280;51715;39.432;-77.518;2023-04-26T05:35:31;100146.21;;;12.52;31.68
65013;BME280;51715;39.432;-77.518;2023-04-26T05:37:59;100147.41;;;12.49;30.39
65013;BME280;51715;39.432;-77.518;2023-04-26T05:40:28;100146.87;;;12.70;30.91
65013;BME280;51715;39.432;-77.518;2023-04-26T05:42:56;100146.31;;;12.47;30.00
65013;BME280;51715;39.432;-77.518;2023-04-26T05:45:25;100143.19;;;12.73;30.03
65013;BME280;51715;39.432;-77.518;2023-04-26T05:47:53;100137.32;;;12.96;31.38
65013;BME280;51715;39.432;-77.518;2023-04-26T05:50:27;100135.51;;;12.35;30.58
65013;BME280;51715;39.432;-77.518;2023-04-26T05:52:55;100138.97;;;12.43;29.84
65013;BME280;51715;39.432;-77.518;2023-04-26T05:55:23;100137.76;;;12.80;30.04
65013;BME280;51715;39.432;-77.518;2023-04-26T05:57:51;100132.99;;;13.01;30.43
65013;BME280;51715;39.432;-77.518;2023-04-26T06:00:20;100130.24;;;12.99;30.05
65013;BME280;51715;39.432;-77.518;2023-04-26T06:02:49;100128.92;;;12.49;30.41
65013;BME280;51715;39.432;-77.518;2023-04-26T06:05:17;100125.37;;;12.37;30.22
65013;BME280;51715;39.432;-77.518;2023-04-26T06:07:45;100121.28;;;12.59;30.88
65013;BME280;51715;39.432;-77.518;2023-04-26T06:10:15;100123.68;;;12.68;30.68
65013;BME280;51715;39.432;-77.518;2023-04-26T06:12:44;100123.91;;;12.97;30.26
65013;BME280;51715;39.432;-77.518;2023-04-26T06:15:12;100119.93;;;12.87;31.00
65013;BME280;51715;39.432;-77.518;2023-04-26T06:17:41;100116.71;;;12.69;30.77
65013;BME280;51715;39.432;-77.518;2023-04-26T06:20:09;100117.32;;;12.47;30.11
65013;BME280;51715;39.432;-77.518;2023-04-26T06:22:38;100115.38;;;12.37;31.16
65013;BME280;51715;39.432;-77.518;2023-04-26T06:25:08;100112.54;;;12.48;31.45
65013;BME280;51715;39.432;-77.518;2023-04-26T06:27:36;100114.38;;;13.07;30.24
65013;BME280;51715;39.432;-77.518;2023-04-26T06:30:09;100115.75;;;12.59;30.24
65013;BME280;51715;39.432;-77.518;2023-04-26T06:32:39;100121.28;;;12.46;30.66
65013;BME280;51715;39.432;-77.518;2023-04-26T06:35:08;100123.73;;;12.94;31.39
65013;BME280;51715;39.432;-77.518;2023-04-26T06:37:37;100121.53;;;12.96;31.20
65013;BME280;51715;39.432;-77.518;2023-04-26T06:40:06;100117.63;;;12.78;30.84
65013;BME280;51715;39.432;-77.518;2023-04-26T06:42:35;100117.19;;;12.68;31.25
65013;BME280;51715;39.432;-77.518;2023-04-26T06:45:04;100111.18;;;12.43;31.23
65013;BME280;51715;39.432;-77.518;2023-04-26T06:47:33;100111.67;;;12.93;31.21
65013;BME280;51715;39.432;-77.518;2023-04-26T06:50:01;100116.76;;;12.63;31.32
65013;BME280;51715;39.432;-77.518;2023-04-26T06:52:30;100114.55;;;12.44;32.35
65013;BME280;51715;39.432;-77.518;2023-04-26T06:55:01;100113.27;;;12.33;32.03
65013;BME280;51715;39.432;-77.518;2023-04-26T06:57:30;100116.84;;;12.87;32.29
65013;BME280;51715;39.432;-77.518;2023-04-26T06:59:58;100117.36;;;12.67;32.72
65013;BME280;51715;39.432;-77.518;2023-04-26T07:02:26;100117.55;;;12.54;32.14
65013;BME280;51715;39.432;-77.518;2023-04-26T07:04:54;100118.19;;;13.12;32.51
65013;BME280;51715;39.432;-77.518;2023-04-26T07:07:22;100121.15;;;12.98;32.51
65013;BME280;51715;39.432;-77.518;2023-04-26T07:09:50;100128.27;;;12.35;32.98
65013;BME280;51715;39.432;-77.518;2023-04-26T07:12:19;100126.56;;;12.97;33.32
65013;BME280;51715;39.432;-77.518;2023-04-26T07:14:47;100121.28;;;13.06;32.83
65013;BME280;51715;39.432;-77.518;2023-04-26T07:17:17;100114.91;;;12.68;33.02
65013;BME280;51715;39.432;-77.518;2023-04-26T07:19:45;100109.19;;;12.65;33.30
65013;BME280;51715;39.432;-77.518;2023-04-26T07:22:13;100112.16;;;12.39;33.11
65013;BME280;51715;39.432;-77.518;2023-04-26T07:24:40;100113.76;;;12.61;33.46
65013;BME280;51715;39.432;-77.518;2023-04-26T07:27:09;100108.16;;;12.98;32.69
65013;BME280;51715;39.432;-77.518;2023-04-26T07:29:38;100110.57;;;13.04;32.41
65013;BME280;51715;39.432;-77.518;2023-04-26T07:32:07;100114.52;;;13.57;32.77
65013;BME280;51715;39.432;-77.518;2023-04-26T07:34:35;100116.78;;;13.22;32.55
65013;BME280;51715;39.432;-77.518;2023-04-26T07:37:04;100117.43;;;13.12;32.79
65013;BME280;51715;39.432;-77.518;2023-04-26T07:39:32;100114.08;;;12.84;33.00
65013;BME280;51715;39.432;-77.518;2023-04-26T07:42:00;100114.61;;;12.82;33.40
65013;BME280;51715;39.432;-77.518;2023-04-26T07:44:28;100115.06;;;12.75;33.40
65013;BME280;51715;39.432;-77.518;2023-04-26T07:46:58;100118.39;;;12.81;33.88
65013;BME280;51715;39.432;-77.518;2023-04-26T07:49:27;100116.67;;;13.06;33.61
65013;BME280;51715;39.432;-77.518;2023-04-26T07:51:55;100117.38;;;12.91;33.72
65013;BME280;51715;39.432;-77.518;2023-04-26T07:54:22;100118.35;;;13.04;33.44
65013;BME280;51715;39.432;-77.518;2023-04-26T07:56:51;100121.95;;;13.27;33.20
65013;BME280;51715;39.432;-77.518;2023-04-26T07:59:20;100123.78;;;13.23;32.46
65013;BME280;51715;39.432;-77.518;2023-04-26T08:01:48;100124.67;;;12.71;32.75
65013;BME280;51715;39.432;-77.518;2023-04-26T08:04:17;100125.36;;;13.28;33.09
65013;BME280;51715;39.432;-77.518;2023-04-26T08:06:46;100123.79;;;13.03;33.47
65013;BME280;51715;39.432;-77.518;2023-04-26T08:09:14;100122.91;;;12.97;32.34
65013;BME280;51715;39.432;-77.518;2023-04-26T08:11:42;100126.51;;;12.65;32.75
65013;BME280;51715;39.432;-77.518;2023-04-26T08:14:10;100122.24;;;13.01;32.83
65013;BME280;51715;39.432;-77.518;2023-04-26T08:16:38;100119.84;;;13.00;33.10
65013;BME280;51715;39.432;-77.518;2023-04-26T08:19:07;100118.48;;;12.80;32.79
65013;BME280;51715;39.432;-77.518;2023-04-26T08:21:35;100111.53;;;12.56;32.66
65013;BME280;51715;39.432;-77.518;2023-04-26T08:24:04;100108.52;;;12.36;33.51
65013;BME280;51715;39.432;-77.518;2023-04-26T08:26:32;100116.81;;;12.43;33.10
65013;BME280;51715;39.432;-77.518;2023-04-26T08:29:00;100118.78;;;12.11;34.00
65013;BME280;51715;39.432;-77.518;2023-04-26T08:31:29;100116.18;;;12.31;32.94
65013;BME280;51715;39.432;-77.518;2023-04-26T08:33:57;100114.45;;;12.67;32.30
65013;BME280;51715;39.432;-77.518;2023-04-26T08:36:26;100108.75;;;12.59;33.21
65013;BME280;51715;39.432;-77.518;2023-04-26T08:38:54;100106.12;;;12.52;32.16
65013;BME280;51715;39.432;-77.518;2023-04-26T08:41:23;100103.36;;;12.68;33.29
65013;BME280;51715;39.432;-77.518;2023-04-26T08:43:51;100108.71;;;12.63;32.84
65013;BME280;51715;39.432;-77.518;2023-04-26T08:46:21;100106.37;;;12.59;32.72
65013;BME280;51715;39.432;-77.518;2023-04-26T08:48:53;100109.37;;;12.40;34.19
65013;BME280;51715;39.432;-77.518;2023-04-26T08:51:24;100111.68;;;12.30;33.78
65013;BME280;51715;39.432;-77.518;2023-04-26T08:53:55;100108.74;;;12.05;33.22
65013;BME280;51715;39.432;-77.518;2023-04-26T08:56:25;100109.45;;;12.22;32.94
65013;BME280;51715;39.432;-77.518;2023-04-26T08:58:54;100115.04;;;12.43;33.11
65013;BME280;51715;39.432;-77.518;2023-04-26T09:01:23;100120.36;;;12.21;34.15
65013;BME280;51715;39.432;-77.518;2023-04-26T09:03:54;100114.00;;;12.14;34.57
65013;BME280;51715;39.432;-77.518;2023-04-26T09:06:23;100112.62;;;11.52;34.76
65013;BME280;51715;39.432;-77.518;2023-04-26T09:08:53;100110.92;;;11.58;34.91
65013;BME280;51715;39.432;-77.518;2023-04-26T09:11:21;100115.02;;;11.03;35.62
65013;BME280;51715;39.432;-77.518;2023-04-26T09:13:49;100111.52;;;10.91;36.24
65013;BME280;51715;39.432;-77.518;2023-04-26T09:16:17;100108.01;;;11.67;35.74
65013;BME280;51715;39.432;-77.518;2023-04-26T09:18:50;100106.33;;;11.80;34.19
65013;BME280;51715;39.432;-77.518;2023-04-26T09:21:18;100111.30;;;12.13;34.31
65013;BME280;51715;39.432;-77.518;2023-04-26T09:24:03;100105.19;;;12.14;33.52
65013;BME280;51715;39.432;-77.518;2023-04-26T09:26:32;100106.56;;;12.85;33.08
65013;BME280;51715;39.432;-77.518;2023-04-26T09:29:12;100107.79;;;12.06;34.84
65013;BME280;51715;39.432;-77.518;2023-04-26T09:31:43;100110.97;;;12.00;34.17
65013;BME280;51715;39.432;-77.518;2023-04-26T09:34:12;100116.77;;;12.82;33.69
65013;BME280;51715;39.432;-77.518;2023-04-26T09:36:48;100117.64;;;12.26;34.32
65013;BME280;51715;39.432;-77.518;2023-04-26T09:39:30;100127.91;;;11.90;34.50
65013;BME280;51715;39.432;-77.518;2023-04-26T09:41:59;100130.57;;;12.08;35.12
65013;BME280;51715;39.432;-77.518;2023-04-26T09:44:29;100125.73;;;12.00;35.19
65013;BME280;51715;39.432;-77.518;2023-04-26T09:47:11;100131.36;;;12.34;34.50
65013;BME280;51715;39.432;-77.518;2023-04-26T09:49:45;100131.40;;;12.56;34.58
65013;BME280;51715;39.432;-77.518;2023-04-26T09:52:14;100134.89;;;12.80;33.99
65013;BME280;51715;39.432;-77.518;2023-04-26T09:54:44;100134.41;;;13.05;33.64
65013;BME280;51715;39.432;-77.518;2023-04-26T09:57:15;100135.30;;;13.00;33.31
65013;BME280;51715;39.432;-77.518;2023-04-26T09:59:46;100140.27;;;12.71;33.21
65013;BME280;51715;39.432;-77.518;2023-04-26T10:02:18;100146.52;;;12.51;33.79
65013;BME280;51715;39.432;-77.518;2023-04-26T10:04:48;100144.84;;;12.76;34.22
65013;BME280;51715;39.432;-77.518;2023-04-26T10:07:19;100148.05;;;12.87;33.12
65013;BME280;51715;39.432;-77.518;2023-04-26T10:09:49;100155.82;;;13.41;33.58
65013;BME280;51715;39.432;-77.518;2023-04-26T10:12:18;100155.92;;;13.44;32.88
65013;BME280;51715;39.432;-77.518;2023-04-26T10:14:47;100158.17;;;12.70;34.65
65013;BME280;51715;39.432;-77.518;2023-04-26T10:17:16;100167.35;;;13.14;33.08
65013;BME280;51715;39.432;-77.518;2023-04-26T10:19:47;100167.19;;;13.15;32.91
65013;BME280;51715;39.432;-77.518;2023-04-26T10:22:21;100172.38;;;13.48;32.63
65013;BME280;51715;39.432;-77.518;2023-04-26T10:24:52;100173.24;;;12.89;34.15
65013;BME280;51715;39.432;-77.518;2023-04-26T10:27:49;100182.91;;;13.19;34.58
65013;BME280;51715;39.432;-77.518;2023-04-26T10:30:20;100178.68;;;13.72;33.43
65013;BME280;51715;39.432;-77.518;2023-04-26T10:33:17;100181.83;;;14.27;33.02
65013;BME280;51715;39.432;-77.518;2023-04-26T10:36:06;100183.55;;;13.85;33.55
65013;BME280;51715;39.432;-77.518;2023-04-26T10:38:35;100179.77;;;13.79;33.74
65013;BME280;51715;39.432;-77.518;2023-04-26T10:41:36;100176.28;;;13.41;34.26
65013;BME280;51715;39.432;-77.518;2023-04-26T10:44:38;100170.37;;;13.43;34.01
65013;BME280;51715;39.432;-77.518;2023-04-26T10:47:22;100169.93;;;13.57;33.77
65013;BME280;51715;39.432;-77.518;2023-04-26T10:49:50;100172.36;;;13.46;33.65
65013;BME280;51715;39.432;-77.518;2023-04-26T10:52:20;100174.30;;;13.45;33.96
65013;BME280;51715;39.432;-77.518;2023-04-26T10:54:49;100176.35;;;13.64;34.67
65013;BME280;51715;39.432;-77.518;2023-04-26T10:57:20;100176.79;;;13.75;34.16
65013;BME280;51715;39.432;-77.518;2023-04-26T11:00:39;100175.33;;;13.57;33.52
65013;BME280;51715;39.432;-77.518;2023-04-26T11:03:10;100176.40;;;13.46;32.99
65013;BME280;51715;39.432;-77.518;2023-04-26T11:05:40;100176.38;;;13.93;33.14
65013;BME280;51715;39.432;-77.518;2023-04-26T11:08:17;100181.45;;;14.00;34.05
65013;BME280;51715;39.432;-77.518;2023-04-26T11:10:52;100189.54;;;14.15;33.56
65013;BME280;51715;39.432;-77.518;2023-04-26T11:13:24;100185.06;;;14.03;34.29
65013;BME280;51715;39.432;-77.518;2023-04-26T11:15:58;100188.20;;;13.97;34.69
65013;BME280;51715;39.432;-77.518;2023-04-26T11:18:27;100184.80;;;14.22;33.94
65013;BME280;51715;39.432;-77.518;2023-04-26T11:20:55;100176.71;;;14.22;34.51
65013;BME280;51715;39.432;-77.518;2023-04-26T11:23:26;100175.16;;;14.20;34.08
65013;BME280;51715;39.432;-77.518;2023-04-26T11:25:57;100174.58;;;14.49;32.68
65013;BME280;51715;39.432;-77.518;2023-04-26T11:28:25;100184.18;;;14.45;33.11
65013;BME280;51715;39.432;-77.518;2023-04-26T11:30:53;100186.40;;;14.58;33.01
65013;BME280;51715;39.432;-77.518;2023-04-26T11:33:22;100190.27;;;14.99;31.50
65013;BME280;51715;39.432;-77.518;2023-04-26T11:35:51;100196.44;;;14.84;31.25
65013;BME280;51715;39.432;-77.518;2023-04-26T11:38:22;100199.09;;;14.94;31.29
65013;BME280;51715;39.432;-77.518;2023-04-26T11:40:57;100199.06;;;14.85;31.28
65013;BME280;51715;39.432;-77.518;2023-04-26T11:43:33;100201.53;;;15.02;31.16
65013;BME280;51715;39.432;-77.518;2023-04-26T11:46:02;100200.98;;;14.72;31.92
65013;BME280;51715;39.432;-77.518;2023-04-26T11:48:30;100204.07;;;14.95;32.08
65013;BME280;51715;39.432;-77.518;2023-04-26T11:51:02;100207.35;;;15.14;32.19
65013;BME280;51715;39.432;-77.518;2023-04-26T11:53:39;100202.30;;;15.06;31.30
65013;BME280;51715;39.432;-77.518;2023-04-26T11:56:14;100198.85;;;15.24;29.90
65013;BME280;51715;39.432;-77.518;2023-04-26T11:58:45;100198.58;;;15.18;32.37
65013;BME280;51715;39.432;-77.518;2023-04-26T12:01:20;100198.27;;;15.56;31.11
65013;BME280;51715;39.432;-77.518;2023-04-26T12:03:51;100197.76;;;15.50;30.61
65013;BME280;51715;39.432;-77.518;2023-04-26T12:06:19;100196.37;;;15.71;29.98
65013;BME280;51715;39.432;-77.518;2023-04-26T12:08:51;100197.28;;;15.79;29.67
65013;BME280;51715;39.432;-77.518;2023-04-26T12:11:21;100197.67;;;15.46;31.79
65013;BME280;51715;39.432;-77.518;2023-04-26T12:13:48;100197.63;;;15.56;30.74
65013;BME280;51715;39.432;-77.518;2023-04-26T12:16:16;100205.00;;;15.54;31.21
65013;BME280;51715;39.432;-77.518;2023-04-26T12:18:49;100204.07;;;15.84;30.18
65013;BME280;51715;39.432;-77.518;2023-04-26T12:21:19;100203.19;;;15.77;30.56
65013;BME280;51715;39.432;-77.518;2023-04-26T12:23:47;100198.25;;;15.88;30.26
65013;BME280;51715;39.432;-77.518;2023-04-26T12:26:17;100191.36;;;15.80;31.53
65013;BME280;51715;39.432;-77.518;2023-04-26T12:28:46;100190.25;;;15.50;30.22
65013;BME280;51715;39.432;-77.518;2023-04-26T12:31:15;100190.51;;;15.47;30.48
65013;BME280;51715;39.432;-77.518;2023-04-26T12:33:42;100189.70;;;15.66;31.32
65013;BME280;51715;39.432;-77.518;2023-04-26T12:36:12;100196.32;;;15.02;31.12
65013;BME280;51715;39.432;-77.518;2023-04-26T12:38:41;100196.79;;;16.13;29.96
65013;BME280;51715;39.432;-77.518;2023-04-26T12:41:09;100199.54;;;16.45;31.26
65013;BME280;51715;39.432;-77.518;2023-04-26T12:43:39;100193.17;;;16.28;30.12
65013;BME280;51715;39.432;-77.518;2023-04-26T12:46:07;100193.90;;;16.08;30.94